sensor_id;sensor_type;location;lat;lon;timestamp;temperature;humidity
38488;DHT22;57384;51.986;4.458;2023-10-09T00:00:57;16.70;77.30
38488;DHT22;57384;51.986;4.458;2023-10-09T00:03:23;16.70;77.30
38488;DHT22;57384;51.986;4.458;2023-10-09T00:05:50;16.80;77.50
38488;DHT22;57384;51.986;4.458;2023-10-09T00:08:17;16.80;77.50
38488;DHT22;57384;51.986;4.458;2023-10-09T00:10:46;16.80;77.60
38488;DHT22;57384;51.986;4.458;2023-10-09T00:13:12;16.80;77.80
38488;DHT22;57384;51.986;4.458;2023-10-09T00:15:41;16.80;77.80
38488;DHT22;57384;51.986;4.458;2023-10-09T00:18:08;16.90;78.00
38488;DHT22;57384;51.986;4.458;2023-10-09T00:20:39;16.90;78.00
38488;DHT22;57384;51.986;4.458;2023-10-09T00:23:05;16.90;78.20
38488;DHT22;57384;51.986;4.458;2023-10-09T00:25:32;16.90;78.20
38488;DHT22;57384;51.986;4.458;2023-10-09T00:27:59;16.90;78.20
38488;DHT22;57384;51.986;4.458;2023-10-09T00:30:25;16.90;78.30
38488;DHT22;57384;51.986;4.458;2023-10-09T00:32:52;16.90;78.40
38488;DHT22;57384;51.986;4.458;2023-10-09T00:35:19;16.90;78.40
38488;DHT22;57384;51.986;4.458;2023-10-09T00:37:45;16.90;78.50
38488;DHT22;57384;51.986;4.458;2023-10-09T00:40:13;17.00;78.60
38488;DHT22;57384;51.986;4.458;2023-10-09T00:42:39;17.00;78.00
38488;DHT22;57384;51.986;4.458;2023-10-09T00:45:06;17.00;78.20
38488;DHT22;57384;51.986;4.458;2023-10-09T00:47:34;17.00;78.50
38488;DHT22;57384;51.986;4.458;2023-10-09T00:50:07;17.00;78.80
38488;DHT22;57384;51.986;4.458;2023-10-09T00:52:35;17.00;78.90
38488;DHT22;57384;51.986;4.458;2023-10-09T00:55:04;17.00;79.10
38488;DHT22;57384;51.986;4.458;2023-10-09T00:57:31;17.10;79.20
38488;DHT22;57384;51.986;4.458;2023-10-09T01:00:00;17.10;79.20
38488;DHT22;57384;51.986;4.458;2023-10-09T01:02:27;17.10;79.30
38488;DHT22;57384;51.986;4.458;2023-10-09T01:04:54;17.10;79.40
38488;DHT22;57384;51.986;4.458;2023-10-09T01:07:21;17.10;79.50
38488;DHT22;57384;51.986;4.458;2023-10-09T01:09:47;17.10;79.50
38488;DHT22;57384;51.986;4.458;2023-10-09T01:12:14;17.10;79.60
38488;DHT22;57384;51.986;4.458;2023-10-09T01:14:41;17.20;79.70
38488;DHT22;57384;51.986;4.458;2023-10-09T01:17:07;17.20;79.80
38488;DHT22;57384;51.986;4.458;2023-10-09T01:19:38;17.20;79.80
38488;DHT22;57384;51.986;4.458;2023-10-09T01:22:04;17.20;79.80
38488;DHT22;57384;51.986;4.458;2023-10-09T01:24:34;17.20;79.80
38488;DHT22;57384;51.986;4.458;2023-10-09T01:27:01;17.20;79.90
38488;DHT22;57384;51.986;4.458;2023-10-09T01:29:27;17.20;79.90
38488;DHT22;57384;51.986;4.458;2023-10-09T01:31:55;17.30;80.00
38488;DHT22;57384;51.986;4.458;2023-10-09T01:34:23;17.30;80.00
38488;DHT22;57384;51.986;4.458;2023-10-09T01:36:51;17.30;80.20
38488;DHT22;57384;51.986;4.458;2023-10-09T01:39:18;17.30;80.30
38488;DHT22;57384;51.986;4.458;2023-10-09T01:41:47;17.20;80.20
38488;DHT22;57384;51.986;4.458;2023-10-09T01:44:13;17.30;80.30
38488;DHT22;57384;51.986;4.458;2023-10-09T01:46:40;17.30;80.30
38488;DHT22;57384;51.986;4.458;2023-10-09T01:49:06;17.30;80.30
38488;DHT22;57384;51.986;4.458;2023-10-09T01:51:40;17.30;80.40
38488;DHT22;57384;51.986;4.458;2023-10-09T01:54:07;17.40;80.70
38488;DHT22;57384;51.986;4.458;2023-10-09T01:56:34;17.40;80.50
38488;DHT22;57384;51.986;4.458;2023-10-09T01:59:01;17.40;80.50
38488;DHT22;57384;51.986;4.458;2023-10-09T02:01:28;17.30;80.60
38488;DHT22;57384;51.986;4.458;2023-10-09T02:03:54;17.40;80.60
38488;DHT22;57384;51.986;4.458;2023-10-09T02:06:21;17.40;80.60
38488;DHT22;57384;51.986;4.458;2023-10-09T02:08:54;17.30;80.60
38488;DHT22;57384;51.986;4.458;2023-10-09T02:11:21;17.40;80.80
38488;DHT22;57384;51.986;4.458;2023-10-09T02:13:47;17.40;80.70
38488;DHT22;57384;51.986;4.458;2023-10-09T02:16:13;17.40;80.70
38488;DHT22;57384;51.986;4.458;2023-10-09T02:18:40;17.40;80.70
38488;DHT22;57384;51.986;4.458;2023-10-09T02:21:07;17.40;80.70
38488;DHT22;57384;51.986;4.458;2023-10-09T02:23:35;17.40;80.70
38488;DHT22;57384;51.986;4.458;2023-10-09T02:26:02;17.40;80.80
38488;DHT22;57384;51.986;4.458;2023-10-09T02:28:28;17.40;80.80
38488;DHT22;57384;51.986;4.458;2023-10-09T02:30:55;17.40;80.80
38488;DHT22;57384;51.986;4.458;2023-10-09T02:33:24;17.40;80.80
38488;DHT22;57384;51.986;4.458;2023-10-09T02:35:51;17.40;80.90
38488;DHT22;57384;51.986;4.458;2023-10-09T02:38:17;17.40;81.00
38488;DHT22;57384;51.986;4.458;2023-10-09T02:40:44;17.40;81.00
38488;DHT22;57384;51.986;4.458;2023-10-09T02:43:11;17.40;81.00
38488;DHT22;57384;51.986;4.458;2023-10-09T02:45:37;17.40;81.00
38488;DHT22;57384;51.986;4.458;2023-10-09T02:48:04;17.40;81.00
38488;DHT22;57384;51.986;4.458;2023-10-09T02:50:34;17.40;81.00
38488;DHT22;57384;51.986;4.458;2023-10-09T02:53:01;17.40;81.20
38488;DHT22;57384;51.986;4.458;2023-10-09T02:55:28;17.40;81.10
38488;DHT22;57384;51.986;4.458;2023-10-09T02:57:56;17.40;81.10
38488;DHT22;57384;51.986;4.458;2023-10-09T03:00:22;17.40;81.20
38488;DHT22;57384;51.986;4.458;2023-10-09T03:02:49;17.40;81.30
38488;DHT22;57384;51.986;4.458;2023-10-09T03:05:16;17.40;81.20
38488;DHT22;57384;51.986;4.458;2023-10-09T03:07:44;17.40;81.30
38488;DHT22;57384;51.986;4.458;2023-10-09T03:10:11;17.40;81.30
38488;DHT22;57384;51.986;4.458;2023-10-09T03:12:37;17.40;81.40
38488;DHT22;57384;51.986;4.458;2023-10-09T03:15:05;17.40;81.40
38488;DHT22;57384;51.986;4.458;2023-10-09T03:17:31;17.40;81.40
38488;DHT22;57384;51.986;4.458;2023-10-09T03:19:58;17.50;80.90
38488;DHT22;57384;51.986;4.458;2023-10-09T03:22:28;17.40;80.90
38488;DHT22;57384;51.986;4.458;2023-10-09T03:24:57;17.40;81.20
38488;DHT22;57384;51.986;4.458;2023-10-09T03:27:25;17.40;81.40
38488;DHT22;57384;51.986;4.458;2023-10-09T03:29:51;17.40;81.40
38488;DHT22;57384;51.986;4.458;2023-10-09T03:32:19;17.50;81.60
38488;DHT22;57384;51.986;4.458;2023-10-09T03:34:45;17.50;81.70
38488;DHT22;57384;51.986;4.458;2023-10-09T03:37:12;17.50;81.60
38488;DHT22;57384;51.986;4.458;2023-10-09T03:39:39;17.60;81.70
38488;DHT22;57384;51.986;4.458;2023-10-09T03:42:05;17.50;81.50
38488;DHT22;57384;51.986;4.458;2023-10-09T03:44:32;17.50;81.60
38488;DHT22;57384;51.986;4.458;2023-10-09T03:46:58;17.60;81.60
38488;DHT22;57384;51.986;4.458;2023-10-09T03:49:25;17.50;81.60
38488;DHT22;57384;51.986;4.458;2023-10-09T03:51:52;17.50;81.50
38488;DHT22;57384;51.986;4.458;2023-10-09T03:54:19;17.60;81.60
38488;DHT22;57384;51.986;4.458;2023-10-09T03:56:46;17.60;81.70
38488;DHT22;57384;51.986;4.458;2023-10-09T03:59:13;17.60;81.70
38488;DHT22;57384;51.986;4.458;2023-10-09T04:01:40;17.60;81.70
38488;DHT22;57384;51.986;4.458;2023-10-09T04:04:06;17.60;81.60
38488;DHT22;57384;51.986;4.458;2023-10-09T04:06:36;17.60;81.60
38488;DHT22;57384;51.986;4.458;2023-10-09T04:09:07;17.60;81.80
38488;DHT22;57384;51.986;4.458;2023-10-09T04:11:33;17.60;81.80
38488;DHT22;57384;51.986;4.458;2023-10-09T04:14:00;17.60;81.70
38488;DHT22;57384;51.986;4.458;2023-10-09T04:16:26;17.60;81.70
38488;DHT22;57384;51.986;4.458;2023-10-09T04:18:53;17.60;81.60
38488;DHT22;57384;51.986;4.458;2023-10-09T04:21:20;17.60;82.20
38488;DHT22;57384;51.986;4.458;2023-10-09T04:23:47;17.60;81.60
38488;DHT22;57384;51.986;4.458;2023-10-09T04:26:13;17.60;81.60
38488;DHT22;57384;51.986;4.458;2023-10-09T04:28:40;17.60;81.60
38488;DHT22;57384;51.986;4.458;2023-10-09T04:31:06;17.60;81.60
38488;DHT22;57384;51.986;4.458;2023-10-09T04:33:33;17.60;81.50
38488;DHT22;57384;51.986;4.458;2023-10-09T04:36:03;17.60;81.50
38488;DHT22;57384;51.986;4.458;2023-10-09T04:38:29;17.60;81.60
38488;DHT22;57384;51.986;4.458;2023-10-09T04:41:05;17.60;81.60
38488;DHT22;57384;51.986;4.458;2023-10-09T04:43:36;17.60;81.70
38488;DHT22;57384;51.986;4.458;2023-10-09T04:46:02;17.60;81.70
38488;DHT22;57384;51.986;4.458;2023-10-09T04:48:29;17.60;81.60
38488;DHT22;57384;51.986;4.458;2023-10-09T04:50:55;17.60;81.60
38488;DHT22;57384;51.986;4.458;2023-10-09T04:53:22;17.60;81.60
38488;DHT22;57384;51.986;4.458;2023-10-09T04:55:48;17.60;81.60
38488;DHT22;57384;51.986;4.458;2023-10-09T04:58:18;17.60;81.60
38488;DHT22;57384;51.986;4.458;2023-10-09T05:00:51;17.60;81.70
38488;DHT22;57384;51.986;4.458;2023-10-09T05:03:18;17.60;81.80
38488;DHT22;57384;51.986;4.458;2023-10-09T05:05:44;17.60;81.70
38488;DHT22;57384;51.986;4.458;2023-10-09T05:08:18;17.60;81.80
38488;DHT22;57384;51.986;4.458;2023-10-09T05:10:49;17.60;82.00
38488;DHT22;57384;51.986;4.458;2023-10-09T05:13:16;17.60;81.80
38488;DHT22;57384;51.986;4.458;2023-10-09T05:15:42;17.60;81.90
38488;DHT22;57384;51.986;4.458;2023-10-09T05:18:09;17.60;81.90
38488;DHT22;57384;51.986;4.458;2023-10-09T05:20:38;17.60;81.90
38488;DHT22;57384;51.986;4.458;2023-10-09T05:23:05;17.60;81.90
38488;DHT22;57384;51.986;4.458;2023-10-09T05:25:31;17.60;81.80
38488;DHT22;57384;51.986;4.458;2023-10-09T05:27:58;17.60;81.70
38488;DHT22;57384;51.986;4.458;2023-10-09T05:30:27;17.60;81.70
38488;DHT22;57384;51.986;4.458;2023-10-09T05:32:57;17.60;81.70
38488;DHT22;57384;51.986;4.458;2023-10-09T05:35:25;17.60;81.70
38488;DHT22;57384;51.986;4.458;2023-10-09T05:37:55;17.60;81.60
38488;DHT22;57384;51.986;4.458;2023-10-09T05:40:35;17.60;81.50
38488;DHT22;57384;51.986;4.458;2023-10-09T05:43:10;17.60;81.60
38488;DHT22;57384;51.986;4.458;2023-10-09T05:45:37;17.60;81.40
38488;DHT22;57384;51.986;4.458;2023-10-09T05:48:04;17.60;81.30
38488;DHT22;57384;51.986;4.458;2023-10-09T05:50:31;17.60;81.30
38488;DHT22;57384;51.986;4.458;2023-10-09T05:52:58;17.60;81.30
38488;DHT22;57384;51.986;4.458;2023-10-09T05:55:25;17.60;81.20
38488;DHT22;57384;51.986;4.458;2023-10-09T05:57:52;17.60;81.20
38488;DHT22;57384;51.986;4.458;2023-10-09T06:00:19;17.60;81.20
38488;DHT22;57384;51.986;4.458;2023-10-09T06:02:59;17.60;81.10
38488;DHT22;57384;51.986;4.458;2023-10-09T06:05:26;17.60;81.20
38488;DHT22;57384;51.986;4.458;2023-10-09T06:07:55;17.60;81.10
38488;DHT22;57384;51.986;4.458;2023-10-09T06:10:22;17.60;81.10
38488;DHT22;57384;51.986;4.458;2023-10-09T06:12:48;17.60;81.00
38488;DHT22;57384;51.986;4.458;2023-10-09T06:15:16;17.60;81.00
38488;DHT22;57384;51.986;4.458;2023-10-09T06:17:42;17.60;81.00
38488;DHT22;57384;51.986;4.458;2023-10-09T06:20:09;17.60;81.00
38488;DHT22;57384;51.986;4.458;2023-10-09T06:22:36;17.60;81.00
38488;DHT22;57384;51.986;4.458;2023-10-09T06:25:03;17.60;80.60
38488;DHT22;57384;51.986;4.458;2023-10-09T06:27:29;17.60;80.60
38488;DHT22;57384;51.986;4.458;2023-10-09T06:29:57;17.50;80.70
38488;DHT22;57384;51.986;4.458;2023-10-09T06:32:24;17.60;80.80
38488;DHT22;57384;51.986;4.458;2023-10-09T06:34:52;17.60;80.80
38488;DHT22;57384;51.986;4.458;2023-10-09T06:37:19;17.60;80.90
38488;DHT22;57384;51.986;4.458;2023-10-09T06:39:46;17.60;80.90
38488;DHT22;57384;51.986;4.458;2023-10-09T06:42:12;17.60;80.80
38488;DHT22;57384;51.986;4.458;2023-10-09T06:44:39;17.60;80.90
38488;DHT22;57384;51.986;4.458;2023-10-09T06:47:08;17.70;80.90
38488;DHT22;57384;51.986;4.458;2023-10-09T06:49:35;17.70;80.90
38488;DHT22;57384;51.986;4.458;2023-10-09T06:52:01;17.70;81.00
38488;DHT22;57384;51.986;4.458;2023-10-09T06:54:28;17.70;80.90
38488;DHT22;57384;51.986;4.458;2023-10-09T06:56:54;17.70;80.90
38488;DHT22;57384;51.986;4.458;2023-10-09T06:59:21;17.70;80.80
38488;DHT22;57384;51.986;4.458;2023-10-09T07:01:48;17.70;80.80
38488;DHT22;57384;51.986;4.458;2023-10-09T07:04:15;17.70;80.90
38488;DHT22;57384;51.986;4.458;2023-10-09T07:06:41;17.80;81.00
38488;DHT22;57384;51.986;4.458;2023-10-09T07:09:08;17.80;81.00
38488;DHT22;57384;51.986;4.458;2023-10-09T07:11:35;17.80;81.00
38488;DHT22;57384;51.986;4.458;2023-10-09T07:14:01;17.80;81.10
38488;DHT22;57384;51.986;4.458;2023-10-09T07:16:28;17.80;81.00
38488;DHT22;57384;51.986;4.458;2023-10-09T07:18:56;17.90;81.10
38488;DHT22;57384;51.986;4.458;2023-10-09T07:21:22;17.80;81.20
38488;DHT22;57384;51.986;4.458;2023-10-09T07:23:49;17.90;81.30
38488;DHT22;57384;51.986;4.458;2023-10-09T07:26:15;17.90;81.40
38488;DHT22;57384;51.986;4.458;2023-10-09T07:28:42;17.90;81.50
38488;DHT22;57384;51.986;4.458;2023-10-09T07:31:16;17.90;81.50
38488;DHT22;57384;51.986;4.458;2023-10-09T07:33:43;18.00;81.70
38488;DHT22;57384;51.986;4.458;2023-10-09T07:36:09;18.00;81.60
38488;DHT22;57384;51.986;4.458;2023-10-09T07:38:36;18.00;81.70
38488;DHT22;57384;51.986;4.458;2023-10-09T07:41:03;18.00;81.70
38488;DHT22;57384;51.986;4.458;2023-10-09T07:43:32;18.10;81.70
38488;DHT22;57384;51.986;4.458;2023-10-09T07:46:02;18.10;81.80
38488;DHT22;57384;51.986;4.458;2023-10-09T07:48:28;18.10;81.90
38488;DHT22;57384;51.986;4.458;2023-10-09T07:50:55;18.10;81.90
38488;DHT22;57384;51.986;4.458;2023-10-09T07:53:21;18.20;81.90
38488;DHT22;57384;51.986;4.458;2023-10-09T07:55:48;18.20;81.90
38488;DHT22;57384;51.986;4.458;2023-10-09T07:58:14;18.20;81.90
38488;DHT22;57384;51.986;4.458;2023-10-09T08:00:41;18.30;81.90
38488;DHT22;57384;51.986;4.458;2023-10-09T08:03:08;18.30;81.80
38488;DHT22;57384;51.986;4.458;2023-10-09T08:05:34;18.40;81.90
38488;DHT22;57384;51.986;4.458;2023-10-09T08:08:01;18.40;81.90
38488;DHT22;57384;51.986;4.458;2023-10-09T08:10:28;18.50;81.90
38488;DHT22;57384;51.986;4.458;2023-10-09T08:12:54;18.50;81.80
38488;DHT22;57384;51.986;4.458;2023-10-09T08:15:21;18.60;81.70
38488;DHT22;57384;51.986;4.458;2023-10-09T08:17:55;18.60;81.70
38488;DHT22;57384;51.986;4.458;2023-10-09T08:20:28;18.70;81.70
38488;DHT22;57384;51.986;4.458;2023-10-09T08:22:55;18.70;81.70
38488;DHT22;57384;51.986;4.458;2023-10-09T08:25:22;18.80;82.10
38488;DHT22;57384;51.986;4.458;2023-10-09T08:28:09;18.90;81.40
38488;DHT22;57384;51.986;4.458;2023-10-09T08:30:36;19.00;81.50
38488;DHT22;57384;51.986;4.458;2023-10-09T08:33:20;19.00;81.30
38488;DHT22;57384;51.986;4.458;2023-10-09T08:35:46;19.10;81.20
38488;DHT22;57384;51.986;4.458;2023-10-09T08:38:14;19.20;81.20
38488;DHT22;57384;51.986;4.458;2023-10-09T08:40:43;19.20;81.10
38488;DHT22;57384;51.986;4.458;2023-10-09T08:43:16;19.30;81.00
38488;DHT22;57384;51.986;4.458;2023-10-09T08:45:46;19.30;81.10
38488;DHT22;57384;51.986;4.458;2023-10-09T08:48:15;19.40;81.00
38488;DHT22;57384;51.986;4.458;2023-10-09T08:50:43;19.50;80.90
38488;DHT22;57384;51.986;4.458;2023-10-09T08:53:10;19.60;80.80
38488;DHT22;57384;51.986;4.458;2023-10-09T08:55:37;19.60;80.50
38488;DHT22;57384;51.986;4.458;2023-10-09T08:58:06;19.70;80.30
38488;DHT22;57384;51.986;4.458;2023-10-09T09:00:33;19.90;80.00
38488;DHT22;57384;51.986;4.458;2023-10-09T09:02:59;19.90;79.70
38488;DHT22;57384;51.986;4.458;2023-10-09T09:05:26;20.00;79.50
38488;DHT22;57384;51.986;4.458;2023-10-09T09:07:52;20.10;79.20
38488;DHT22;57384;51.986;4.458;2023-10-09T09:10:27;20.20;79.00
38488;DHT22;57384;51.986;4.458;2023-10-09T09:12:54;20.20;78.80
38488;DHT22;57384;51.986;4.458;2023-10-09T09:15:23;20.30;78.60
38488;DHT22;57384;51.986;4.458;2023-10-09T09:17:50;20.40;78.50
38488;DHT22;57384;51.986;4.458;2023-10-09T09:20:24;20.40;78.30
38488;DHT22;57384;51.986;4.458;2023-10-09T09:22:55;20.60;78.10
38488;DHT22;57384;51.986;4.458;2023-10-09T09:25:23;20.60;77.80
38488;DHT22;57384;51.986;4.458;2023-10-09T09:27:49;20.70;77.80
38488;DHT22;57384;51.986;4.458;2023-10-09T09:30:27;20.80;77.60
38488;DHT22;57384;51.986;4.458;2023-10-09T09:32:53;20.90;77.60
38488;DHT22;57384;51.986;4.458;2023-10-09T09:35:20;20.90;77.40
38488;DHT22;57384;51.986;4.458;2023-10-09T09:37:55;21.00;77.40
38488;DHT22;57384;51.986;4.458;2023-10-09T09:40:22;21.10;77.20
38488;DHT22;57384;51.986;4.458;2023-10-09T09:42:50;21.10;76.90
38488;DHT22;57384;51.986;4.458;2023-10-09T09:45:18;21.20;76.80
38488;DHT22;57384;51.986;4.458;2023-10-09T09:47:44;21.30;76.50
38488;DHT22;57384;51.986;4.458;2023-10-09T09:50:11;21.40;76.30
38488;DHT22;57384;51.986;4.458;2023-10-09T09:52:38;21.50;76.20
38488;DHT22;57384;51.986;4.458;2023-10-09T09:55:26;21.50;75.80
38488;DHT22;57384;51.986;4.458;2023-10-09T09:57:57;21.60;75.50
38488;DHT22;57384;51.986;4.458;2023-10-09T10:00:31;21.60;75.40
38488;DHT22;57384;51.986;4.458;2023-10-09T10:03:14;21.70;75.00
38488;DHT22;57384;51.986;4.458;2023-10-09T10:05:43;21.80;75.00
38488;DHT22;57384;51.986;4.458;2023-10-09T10:08:11;21.80;74.80
38488;DHT22;57384;51.986;4.458;2023-10-09T10:10:38;21.90;74.60
38488;DHT22;57384;51.986;4.458;2023-10-09T10:13:05;21.90;74.50
38488;DHT22;57384;51.986;4.458;2023-10-09T10:16:00;22.00;74.40
38488;DHT22;57384;51.986;4.458;2023-10-09T10:18:33;22.10;74.10
38488;DHT22;57384;51.986;4.458;2023-10-09T10:21:18;22.10;73.90
38488;DHT22;57384;51.986;4.458;2023-10-09T10:23:44;22.20;73.80
38488;DHT22;57384;51.986;4.458;2023-10-09T10:26:21;22.20;73.70
38488;DHT22;57384;51.986;4.458;2023-10-09T10:29:18;22.30;73.70
38488;DHT22;57384;51.986;4.458;2023-10-09T10:32:02;22.30;73.60
38488;DHT22;57384;51.986;4.458;2023-10-09T10:37:15;22.40;73.20
38488;DHT22;57384;51.986;4.458;2023-10-09T10:39:51;22.60;73.10
38488;DHT22;57384;51.986;4.458;2023-10-09T10:42:18;22.60;72.90
38488;DHT22;57384;51.986;4.458;2023-10-09T10:44:47;22.70;72.80
38488;DHT22;57384;51.986;4.458;2023-10-09T10:47:14;22.80;72.50
38488;DHT22;57384;51.986;4.458;2023-10-09T10:49:44;22.90;72.40
38488;DHT22;57384;51.986;4.458;2023-10-09T10:52:23;23.00;72.20
38488;DHT22;57384;51.986;4.458;2023-10-09T10:55:31;23.00;71.80
38488;DHT22;57384;51.986;4.458;2023-10-09T10:57:58;23.20;71.90
38488;DHT22;57384;51.986;4.458;2023-10-09T11:00:28;23.20;71.50
38488;DHT22;57384;51.986;4.458;2023-10-09T11:02:55;23.30;71.40
38488;DHT22;57384;51.986;4.458;2023-10-09T11:05:28;23.40;71.10
38488;DHT22;57384;51.986;4.458;2023-10-09T11:07:58;23.40;71.00
38488;DHT22;57384;51.986;4.458;2023-10-09T11:10:24;23.50;71.20
38488;DHT22;57384;51.986;4.458;2023-10-09T11:12:51;23.60;71.10
38488;DHT22;57384;51.986;4.458;2023-10-09T11:15:30;23.70;70.90
38488;DHT22;57384;51.986;4.458;2023-10-09T11:18:07;23.70;70.60
38488;DHT22;57384;51.986;4.458;2023-10-09T11:20:37;23.80;70.60
38488;DHT22;57384;51.986;4.458;2023-10-09T11:23:07;24.00;70.70
38488;DHT22;57384;51.986;4.458;2023-10-09T11:25:34;24.10;70.40
38488;DHT22;57384;51.986;4.458;2023-10-09T11:28:01;24.20;70.20
38488;DHT22;57384;51.986;4.458;2023-10-09T11:30:45;24.20;70.00
38488;DHT22;57384;51.986;4.458;2023-10-09T11:33:12;24.30;69.90
38488;DHT22;57384;51.986;4.458;2023-10-09T11:35:39;24.40;69.70
38488;DHT22;57384;51.986;4.458;2023-10-09T11:38:09;24.40;69.50
38488;DHT22;57384;51.986;4.458;2023-10-09T11:40:36;24.50;69.40
38488;DHT22;57384;51.986;4.458;2023-10-09T11:43:03;24.60;69.20
38488;DHT22;57384;51.986;4.458;2023-10-09T11:45:29;24.70;69.30
38488;DHT22;57384;51.986;4.458;2023-10-09T11:47:57;24.80;69.50
38488;DHT22;57384;51.986;4.458;2023-10-09T11:50:43;24.80;69.50
38488;DHT22;57384;51.986;4.458;2023-10-09T11:53:12;24.90;69.40
38488;DHT22;57384;51.986;4.458;2023-10-09T11:55:39;24.90;68.90
38488;DHT22;57384;51.986;4.458;2023-10-09T11:58:05;25.00;68.80
38488;DHT22;57384;51.986;4.458;2023-10-09T12:00:32;25.10;69.10
38488;DHT22;57384;51.986;4.458;2023-10-09T12:03:02;25.10;69.00
38488;DHT22;57384;51.986;4.458;2023-10-09T12:05:34;25.20;68.40
38488;DHT22;57384;51.986;4.458;2023-10-09T12:08:02;25.20;67.90
38488;DHT22;57384;51.986;4.458;2023-10-09T12:10:29;25.20;67.50
38488;DHT22;57384;51.986;4.458;2023-10-09T12:12:56;25.20;67.80
38488;DHT22;57384;51.986;4.458;2023-10-09T12:15:22;25.20;67.50
38488;DHT22;57384;51.986;4.458;2023-10-09T12:17:49;25.20;67.80
38488;DHT22;57384;51.986;4.458;2023-10-09T12:20:16;25.20;67.60
38488;DHT22;57384;51.986;4.458;2023-10-09T12:22:45;25.20;68.00
38488;DHT22;57384;51.986;4.458;2023-10-09T12:25:12;25.20;67.70
38488;DHT22;57384;51.986;4.458;2023-10-09T12:27:38;25.20;67.60
38488;DHT22;57384;51.986;4.458;2023-10-09T12:30:07;25.30;67.70
38488;DHT22;57384;51.986;4.458;2023-10-09T12:32:34;25.30;67.30
38488;DHT22;57384;51.986;4.458;2023-10-09T12:35:00;25.30;66.80
38488;DHT22;57384;51.986;4.458;2023-10-09T12:37:27;25.20;66.60
38488;DHT22;57384;51.986;4.458;2023-10-09T12:39:56;25.30;66.40
38488;DHT22;57384;51.986;4.458;2023-10-09T12:42:25;25.30;66.20
38488;DHT22;57384;51.986;4.458;2023-10-09T12:44:51;25.30;66.00
38488;DHT22;57384;51.986;4.458;2023-10-09T12:47:18;25.30;66.00
38488;DHT22;57384;51.986;4.458;2023-10-09T12:49:45;25.30;66.10
38488;DHT22;57384;51.986;4.458;2023-10-09T12:52:12;25.30;65.80
38488;DHT22;57384;51.986;4.458;2023-10-09T12:54:38;25.30;65.60
38488;DHT22;57384;51.986;4.458;2023-10-09T12:57:05;25.30;65.60
38488;DHT22;57384;51.986;4.458;2023-10-09T12:59:34;25.30;65.40
38488;DHT22;57384;51.986;4.458;2023-10-09T13:02:01;25.30;65.50
38488;DHT22;57384;51.986;4.458;2023-10-09T13:04:28;25.30;65.20
38488;DHT22;57384;51.986;4.458;2023-10-09T13:06:54;25.30;65.50
38488;DHT22;57384;51.986;4.458;2023-10-09T13:09:21;25.30;65.20
38488;DHT22;57384;51.986;4.458;2023-10-09T13:11:48;25.20;65.70
38488;DHT22;57384;51.986;4.458;2023-10-09T13:14:15;25.20;65.10
38488;DHT22;57384;51.986;4.458;2023-10-09T13:16:42;25.20;65.00
38488;DHT22;57384;51.986;4.458;2023-10-09T13:19:09;25.20;64.80
38488;DHT22;57384;51.986;4.458;2023-10-09T13:21:36;25.20;65.20
38488;DHT22;57384;51.986;4.458;2023-10-09T13:24:03;25.20;65.10
38488;DHT22;57384;51.986;4.458;2023-10-09T13:26:29;25.20;65.10
38488;DHT22;57384;51.986;4.458;2023-10-09T13:28:58;25.10;64.90
38488;DHT22;57384;51.986;4.458;2023-10-09T13:31:25;25.10;64.80
38488;DHT22;57384;51.986;4.458;2023-10-09T13:33:53;25.20;64.80
38488;DHT22;57384;51.986;4.458;2023-10-09T13:36:21;25.10;64.70
38488;DHT22;57384;51.986;4.458;2023-10-09T13:38:51;25.20;64.60
38488;DHT22;57384;51.986;4.458;2023-10-09T13:41:18;25.20;64.70
38488;DHT22;57384;51.986;4.458;2023-10-09T13:43:44;25.20;64.80
38488;DHT22;57384;51.986;4.458;2023-10-09T13:46:11;25.20;64.90
38488;DHT22;57384;51.986;4.458;2023-10-09T13:48:41;25.20;64.70
38488;DHT22;57384;51.986;4.458;2023-10-09T13:51:12;25.20;64.90
38488;DHT22;57384;51.986;4.458;2023-10-09T13:53:39;25.20;64.60
38488;DHT22;57384;51.986;4.458;2023-10-09T13:56:09;25.20;64.90
38488;DHT22;57384;51.986;4.458;2023-10-09T13:58:36;25.20;65.10
38488;DHT22;57384;51.986;4.458;2023-10-09T14:01:02;25.20;64.80
38488;DHT22;57384;51.986;4.458;2023-10-09T14:03:31;25.20;64.60
38488;DHT22;57384;51.986;4.458;2023-10-09T14:05:57;25.20;64.60
38488;DHT22;57384;51.986;4.458;2023-10-09T14:08:24;25.20;64.50
38488;DHT22;57384;51.986;4.458;2023-10-09T14:10:51;25.20;64.40
38488;DHT22;57384;51.986;4.458;2023-10-09T14:13:20;25.20;64.30
38488;DHT22;57384;51.986;4.458;2023-10-09T14:15:57;25.20;64.20
38488;DHT22;57384;51.986;4.458;2023-10-09T14:18:28;25.20;64.20
38488;DHT22;57384;51.986;4.458;2023-10-09T14:20:54;25.20;64.20
38488;DHT22;57384;51.986;4.458;2023-10-09T14:23:21;25.20;64.20
38488;DHT22;57384;51.986;4.458;2023-10-09T14:25:50;25.20;64.10
38488;DHT22;57384;51.986;4.458;2023-10-09T14:28:17;25.20;64.00
38488;DHT22;57384;51.986;4.458;2023-10-09T14:30:43;25.10;63.90
38488;DHT22;57384;51.986;4.458;2023-10-09T14:33:10;25.10;63.90
38488;DHT22;57384;51.986;4.458;2023-10-09T14:35:38;25.10;63.90
38488;DHT22;57384;51.986;4.458;2023-10-09T14:38:05;25.00;63.80
38488;DHT22;57384;51.986;4.458;2023-10-09T14:40:32;25.00;63.80
38488;DHT22;57384;51.986;4.458;2023-10-09T14:42:58;25.00;64.10
38488;DHT22;57384;51.986;4.458;2023-10-09T14:45:28;24.90;64.00
38488;DHT22;57384;51.986;4.458;2023-10-09T14:48:00;24.90;64.00
38488;DHT22;57384;51.986;4.458;2023-10-09T14:50:27;24.80;64.00
38488;DHT22;57384;51.986;4.458;2023-10-09T14:52:54;24.80;64.00
38488;DHT22;57384;51.986;4.458;2023-10-09T14:55:20;24.80;64.10
38488;DHT22;57384;51.986;4.458;2023-10-09T14:57:55;24.80;64.10
38488;DHT22;57384;51.986;4.458;2023-10-09T15:00:21;24.70;64.10
38488;DHT22;57384;51.986;4.458;2023-10-09T15:02:49;24.70;64.10
38488;DHT22;57384;51.986;4.458;2023-10-09T15:05:16;24.70;64.20
38488;DHT22;57384;51.986;4.458;2023-10-09T15:07:42;24.60;64.10
38488;DHT22;57384;51.986;4.458;2023-10-09T15:10:09;24.60;64.30
38488;DHT22;57384;51.986;4.458;2023-10-09T15:12:36;24.50;64.20
38488;DHT22;57384;51.986;4.458;2023-10-09T15:15:02;24.50;64.30
38488;DHT22;57384;51.986;4.458;2023-10-09T15:17:29;24.50;64.30
38488;DHT22;57384;51.986;4.458;2023-10-09T15:19:55;24.40;64.30
38488;DHT22;57384;51.986;4.458;2023-10-09T15:22:22;24.40;64.30
38488;DHT22;57384;51.986;4.458;2023-10-09T15:24:48;24.30;64.30
38488;DHT22;57384;51.986;4.458;2023-10-09T15:27:15;24.30;64.40
38488;DHT22;57384;51.986;4.458;2023-10-09T15:29:41;24.30;64.50
38488;DHT22;57384;51.986;4.458;2023-10-09T15:32:08;24.30;64.50
38488;DHT22;57384;51.986;4.458;2023-10-09T15:34:34;24.30;64.50
38488;DHT22;57384;51.986;4.458;2023-10-09T15:37:01;24.20;64.60
38488;DHT22;57384;51.986;4.458;2023-10-09T15:39:28;24.10;64.60